FLI503 EKVG-BIKF
Flight info
| Callsign | FLI503 |
|---|---|
| Flight time | 1h 1m |
| Altitude | 36000 |
| Route | MY DCT ING DCT NASBU NASBU4K |
| Aircraft | A320/M-SDE3FGHIRWY/LB1 |
Departure
| Time | 2026-04-27 10:21 |
|---|---|
| Airport | Vágar Airport (EKVG) |
Arrival
| Time | 2026-04-27 11:23 |
|---|---|
| Airport | Keflavik International Airport (BIKF) |
| Time | Latitude | Longitude | Altitude | Speed | Heading |
|---|---|---|---|---|---|
| 2026-04-27 10:00 | 62.06712 | -7.28024 | 289 ft | 0 kts | 76° |
| 2026-04-27 10:16 | 62.06712 | -7.28025 | 289 ft | 1 kts | 77° |
| 2026-04-27 10:16 | 62.06705 | -7.28073 | 291 ft | 4 kts | 65° |
| 2026-04-27 10:16 | 62.06694 | -7.28123 | 292 ft | 4 kts | 89° |
| 2026-04-27 10:16 | 62.06689 | -7.28129 | 293 ft | 0 kts | 159° |
| 2026-04-27 10:18 | 62.06681 | -7.28122 | 292 ft | 7 kts | 158° |
| 2026-04-27 10:19 | 62.06584 | -7.28092 | 288 ft | 17 kts | 186° |
| 2026-04-27 10:19 | 62.06496 | -7.28222 | 286 ft | 18 kts | 272° |
| 2026-04-27 10:19 | 62.06550 | -7.28476 | 282 ft | 19 kts | 298° |
| 2026-04-27 10:19 | 62.06608 | -7.28721 | 284 ft | 18 kts | 297° |
| 2026-04-27 10:20 | 62.06666 | -7.28960 | 279 ft | 20 kts | 297° |
| 2026-04-27 10:20 | 62.06703 | -7.29156 | 277 ft | 11 kts | 277° |
| 2026-04-27 10:20 | 62.06723 | -7.29189 | 275 ft | 3 kts | 95° |
| 2026-04-27 10:20 | 62.06719 | -7.29169 | 276 ft | 5 kts | 116° |
| 2026-04-27 10:21 | 62.06576 | -7.28592 | 281 ft | 84 kts | 118° |
| 2026-04-27 10:21 | 62.06197 | -7.27076 | 287 ft | 145 kts | 117° |
| 2026-04-27 10:21 | 62.05694 | -7.25075 | 829 ft | 152 kts | 119° |
| 2026-04-27 10:21 | 62.05135 | -7.23187 | 1626 ft | 150 kts | 138° |
| 2026-04-27 10:22 | 62.04248 | -7.22088 | 2263 ft | 151 kts | 168° |
| 2026-04-27 10:22 | 62.03163 | -7.22182 | 2559 ft | 165 kts | 201° |
| 2026-04-27 10:22 | 62.02120 | -7.23376 | 2912 ft | 178 kts | 214° |
| 2026-04-27 10:22 | 62.01099 | -7.25098 | 3192 ft | 196 kts | 224° |
| 2026-04-27 10:23 | 62.00177 | -7.27423 | 3491 ft | 217 kts | 236° |
| 2026-04-27 10:23 | 61.99444 | -7.30427 | 3871 ft | 239 kts | 249° |
| 2026-04-27 10:23 | 61.99043 | -7.33906 | 4647 ft | 246 kts | 263° |
| 2026-04-27 10:23 | 61.99045 | -7.37512 | 5501 ft | 250 kts | 277° |
| 2026-04-27 10:24 | 61.99480 | -7.41116 | 6372 ft | 254 kts | 291° |
| 2026-04-27 10:24 | 62.00343 | -7.44432 | 7210 ft | 259 kts | 306° |
| 2026-04-27 10:24 | 62.01606 | -7.47201 | 8028 ft | 264 kts | 321° |
| 2026-04-27 10:24 | 62.03173 | -7.49304 | 8778 ft | 272 kts | 328° |
| 2026-04-27 10:25 | 62.04835 | -7.51376 | 9436 ft | 280 kts | 328° |
| 2026-04-27 10:25 | 62.06527 | -7.53501 | 10233 ft | 285 kts | 328° |
| 2026-04-27 10:25 | 62.08294 | -7.55736 | 10561 ft | 306 kts | 328° |
| 2026-04-27 10:25 | 62.10049 | -7.58520 | 10927 ft | 321 kts | 314° |
| 2026-04-27 10:26 | 62.11454 | -7.62248 | 11606 ft | 325 kts | 300° |
| 2026-04-27 10:26 | 62.12497 | -7.66549 | 12362 ft | 327 kts | 296° |
| 2026-04-27 10:26 | 62.13510 | -7.70932 | 13133 ft | 330 kts | 296° |
| 2026-04-27 10:26 | 62.14529 | -7.75346 | 13891 ft | 333 kts | 296° |
| 2026-04-27 10:27 | 62.15556 | -7.79805 | 14574 ft | 335 kts | 296° |
| 2026-04-27 10:27 | 62.16588 | -7.84287 | 15255 ft | 336 kts | 297° |
| 2026-04-27 10:27 | 62.17622 | -7.88795 | 15947 ft | 338 kts | 297° |
| 2026-04-27 10:27 | 62.18641 | -7.93261 | 16619 ft | 339 kts | 297° |
| 2026-04-27 10:28 | 62.19688 | -7.97867 | 17311 ft | 340 kts | 297° |
| 2026-04-27 10:28 | 62.20728 | -8.02431 | 17988 ft | 342 kts | 298° |
| 2026-04-27 10:28 | 62.21759 | -8.06958 | 18647 ft | 343 kts | 298° |
| 2026-04-27 10:28 | 62.22805 | -8.11565 | 19214 ft | 345 kts | 298° |
| 2026-04-27 10:29 | 62.23856 | -8.16200 | 19744 ft | 347 kts | 298° |
| 2026-04-27 10:29 | 62.24913 | -8.20884 | 20290 ft | 350 kts | 298° |
| 2026-04-27 10:29 | 62.25973 | -8.25609 | 20819 ft | 353 kts | 298° |
| 2026-04-27 10:29 | 62.27042 | -8.30378 | 21351 ft | 356 kts | 298° |
| 2026-04-27 10:30 | 62.28120 | -8.35183 | 21873 ft | 359 kts | 298° |
| 2026-04-27 10:30 | 62.29205 | -8.40038 | 22379 ft | 362 kts | 298° |
| 2026-04-27 10:30 | 62.30302 | -8.44943 | 22898 ft | 365 kts | 298° |
| 2026-04-27 10:30 | 62.31406 | -8.49893 | 23408 ft | 368 kts | 298° |
| 2026-04-27 10:31 | 62.32517 | -8.54880 | 23905 ft | 371 kts | 298° |
| 2026-04-27 10:31 | 62.33633 | -8.59904 | 24323 ft | 373 kts | 298° |
| 2026-04-27 10:31 | 62.34750 | -8.64954 | 24774 ft | 374 kts | 298° |
| 2026-04-27 10:31 | 62.35866 | -8.70022 | 25224 ft | 375 kts | 298° |
| 2026-04-27 10:32 | 62.36967 | -8.75048 | 25661 ft | 376 kts | 298° |
| 2026-04-27 10:32 | 62.38085 | -8.80149 | 26066 ft | 377 kts | 298° |
| 2026-04-27 10:32 | 62.39205 | -8.85257 | 26530 ft | 376 kts | 298° |
| 2026-04-27 10:32 | 62.40325 | -8.90379 | 26960 ft | 377 kts | 298° |
| 2026-04-27 10:33 | 62.41444 | -8.95496 | 27358 ft | 378 kts | 298° |
| 2026-04-27 10:33 | 62.42566 | -9.00629 | 27744 ft | 379 kts | 298° |
| 2026-04-27 10:33 | 62.43688 | -9.05788 | 28123 ft | 380 kts | 298° |
| 2026-04-27 10:33 | 62.44811 | -9.10985 | 28496 ft | 382 kts | 298° |
| 2026-04-27 10:34 | 62.45935 | -9.16203 | 28861 ft | 383 kts | 298° |
| 2026-04-27 10:34 | 62.47059 | -9.21443 | 29214 ft | 385 kts | 298° |
| 2026-04-27 10:34 | 62.48186 | -9.26693 | 29558 ft | 386 kts | 298° |
| 2026-04-27 10:34 | 62.49317 | -9.31971 | 29894 ft | 387 kts | 298° |
| 2026-04-27 10:35 | 62.50450 | -9.37269 | 30221 ft | 389 kts | 298° |
| 2026-04-27 10:35 | 62.51584 | -9.42593 | 30520 ft | 390 kts | 298° |
| 2026-04-27 10:35 | 62.52717 | -9.47933 | 30787 ft | 391 kts | 298° |
| 2026-04-27 10:35 | 62.53854 | -9.53298 | 31060 ft | 392 kts | 298° |
| 2026-04-27 10:36 | 62.54988 | -9.58661 | 31325 ft | 392 kts | 298° |
| 2026-04-27 10:36 | 62.56110 | -9.63979 | 31585 ft | 392 kts | 297° |
| 2026-04-27 10:36 | 62.59891 | -9.82022 | 32872 ft | 384 kts | 297° |
| 2026-04-27 10:36 | 62.64243 | -10.02892 | 34395 ft | 374 kts | 297° |
| 2026-04-27 10:37 | 62.68500 | -10.23558 | 35221 ft | 377 kts | 296° |
| 2026-04-27 10:37 | 62.72783 | -10.44607 | 35858 ft | 382 kts | 295° |
| 2026-04-27 10:37 | 62.77080 | -10.65997 | 36208 ft | 385 kts | 295° |
| 2026-04-27 10:37 | 62.78903 | -10.75140 | 36266 ft | 380 kts | 295° |
| 2026-04-27 10:38 | 62.86257 | -11.12197 | 36248 ft | 380 kts | 295° |
| 2026-04-27 10:38 | 62.94513 | -11.54782 | 36195 ft | 378 kts | 294° |
| 2026-04-27 10:39 | 63.02571 | -11.97186 | 36302 ft | 372 kts | 293° |
| 2026-04-27 10:39 | 63.10435 | -12.39599 | 36186 ft | 370 kts | 292° |
| 2026-04-27 10:40 | 63.18141 | -12.81891 | 36223 ft | 371 kts | 291° |
| 2026-04-27 10:40 | 63.25644 | -13.24095 | 36193 ft | 369 kts | 290° |
| 2026-04-27 10:41 | 63.33060 | -13.66695 | 36185 ft | 368 kts | 290° |
| 2026-04-27 10:41 | 63.40352 | -14.09424 | 36184 ft | 368 kts | 289° |
| 2026-04-27 10:42 | 63.47405 | -14.51950 | 36175 ft | 370 kts | 288° |
| 2026-04-27 10:42 | 63.49180 | -14.62758 | 36153 ft | 369 kts | 288° |
| 2026-04-27 10:43 | 63.50941 | -14.73530 | 36151 ft | 368 kts | 288° |
| 2026-04-27 10:43 | 63.52682 | -14.84317 | 36143 ft | 368 kts | 287° |
| 2026-04-27 10:44 | 63.54428 | -14.95120 | 36131 ft | 369 kts | 287° |
| 2026-04-27 10:44 | 63.56166 | -15.05954 | 36130 ft | 369 kts | 287° |
| 2026-04-27 10:45 | 63.57888 | -15.16718 | 36154 ft | 369 kts | 287° |
| 2026-04-27 10:45 | 63.59610 | -15.27570 | 36140 ft | 369 kts | 287° |
| 2026-04-27 10:46 | 63.61318 | -15.38436 | 36134 ft | 369 kts | 287° |
| 2026-04-27 10:46 | 63.63014 | -15.49318 | 36132 ft | 369 kts | 286° |
| 2026-04-27 10:47 | 63.64706 | -15.60207 | 36126 ft | 369 kts | 286° |
| 2026-04-27 10:47 | 63.66397 | -15.71122 | 36076 ft | 370 kts | 285° |
| 2026-04-27 10:48 | 63.68089 | -15.82106 | 36085 ft | 372 kts | 285° |
| 2026-04-27 10:48 | 63.69774 | -15.93155 | 36088 ft | 373 kts | 285° |
| 2026-04-27 10:49 | 63.71461 | -16.04255 | 36090 ft | 375 kts | 285° |
| 2026-04-27 10:49 | 63.73140 | -16.15398 | 36094 ft | 375 kts | 285° |
| 2026-04-27 10:50 | 63.74799 | -16.26489 | 36094 ft | 375 kts | 285° |
| 2026-04-27 10:50 | 63.76459 | -16.37657 | 36094 ft | 375 kts | 284° |
| 2026-04-27 10:51 | 63.78111 | -16.48866 | 36099 ft | 376 kts | 284° |
| 2026-04-27 10:51 | 63.79765 | -16.60111 | 36105 ft | 376 kts | 284° |
| 2026-04-27 10:52 | 63.80705 | -16.71649 | 36105 ft | 372 kts | 274° |
| 2026-04-27 10:52 | 63.81285 | -16.83217 | 36106 ft | 372 kts | 274° |
| 2026-04-27 10:53 | 63.82166 | -17.00676 | 36106 ft | 372 kts | 274° |
| 2026-04-27 10:54 | 63.82742 | -17.12327 | 36095 ft | 372 kts | 274° |
| 2026-04-27 10:54 | 63.83304 | -17.23996 | 36096 ft | 372 kts | 274° |
| 2026-04-27 10:55 | 63.83848 | -17.35582 | 36093 ft | 372 kts | 274° |
| 2026-04-27 10:55 | 63.85681 | -17.76159 | 36067 ft | 371 kts | 273° |
| 2026-04-27 10:56 | 63.87640 | -18.22691 | 36057 ft | 371 kts | 272° |
| 2026-04-27 10:56 | 63.89015 | -18.58000 | 36026 ft | 372 kts | 271° |
| 2026-04-27 10:57 | 63.89465 | -18.69702 | 36026 ft | 372 kts | 271° |
| 2026-04-27 10:57 | 63.89903 | -18.81486 | 35079 ft | 381 kts | 271° |
| 2026-04-27 10:57 | 63.90120 | -18.87472 | 34590 ft | 377 kts | 270° |
| 2026-04-27 10:58 | 63.90334 | -18.93345 | 34170 ft | 371 kts | 270° |
| 2026-04-27 10:58 | 63.90544 | -18.99145 | 33696 ft | 366 kts | 270° |
| 2026-04-27 10:58 | 63.90744 | -19.04857 | 33262 ft | 360 kts | 270° |
| 2026-04-27 10:58 | 63.90937 | -19.10491 | 32822 ft | 355 kts | 270° |
| 2026-04-27 10:59 | 63.91124 | -19.15962 | 32416 ft | 350 kts | 269° |
| 2026-04-27 10:59 | 63.91310 | -19.21438 | 31998 ft | 345 kts | 269° |
| 2026-04-27 10:59 | 63.91492 | -19.26842 | 31594 ft | 341 kts | 269° |
| 2026-04-27 11:00 | 63.91841 | -19.37509 | 30808 ft | 335 kts | 269° |
| 2026-04-27 11:00 | 63.92012 | -19.42772 | 30415 ft | 333 kts | 269° |
| 2026-04-27 11:00 | 63.92179 | -19.47991 | 30033 ft | 329 kts | 269° |
| 2026-04-27 11:00 | 63.92339 | -19.53137 | 29620 ft | 324 kts | 269° |
| 2026-04-27 11:01 | 63.92496 | -19.58204 | 29258 ft | 319 kts | 269° |
| 2026-04-27 11:01 | 63.92651 | -19.63195 | 28903 ft | 313 kts | 269° |
| 2026-04-27 11:01 | 63.92803 | -19.68105 | 28571 ft | 308 kts | 269° |
| 2026-04-27 11:01 | 63.92948 | -19.72916 | 28239 ft | 302 kts | 269° |
| 2026-04-27 11:02 | 63.93087 | -19.77619 | 27904 ft | 301 kts | 268° |
| 2026-04-27 11:02 | 63.93225 | -19.82354 | 27573 ft | 299 kts | 268° |
| 2026-04-27 11:02 | 63.93362 | -19.87067 | 27238 ft | 298 kts | 268° |
| 2026-04-27 11:02 | 63.93498 | -19.91753 | 26922 ft | 296 kts | 268° |
| 2026-04-27 11:03 | 63.93633 | -19.96410 | 26568 ft | 294 kts | 267° |
| 2026-04-27 11:03 | 63.93761 | -20.01024 | 26222 ft | 291 kts | 267° |
| 2026-04-27 11:03 | 63.93888 | -20.05610 | 25876 ft | 290 kts | 267° |
| 2026-04-27 11:03 | 63.93971 | -20.08637 | 25643 ft | 289 kts | 267° |
| 2026-04-27 11:04 | 63.94099 | -20.13190 | 25285 ft | 288 kts | 267° |
| 2026-04-27 11:04 | 63.94225 | -20.17732 | 24934 ft | 287 kts | 266° |
| 2026-04-27 11:04 | 63.94347 | -20.22250 | 24569 ft | 285 kts | 266° |
| 2026-04-27 11:04 | 63.94464 | -20.26744 | 24205 ft | 284 kts | 266° |
| 2026-04-27 11:05 | 63.94578 | -20.31236 | 23816 ft | 284 kts | 266° |
| 2026-04-27 11:05 | 63.94692 | -20.35725 | 23363 ft | 284 kts | 266° |
| 2026-04-27 11:05 | 63.94812 | -20.40207 | 22910 ft | 283 kts | 266° |
| 2026-04-27 11:05 | 63.94935 | -20.44659 | 22493 ft | 281 kts | 266° |
| 2026-04-27 11:06 | 63.95056 | -20.49075 | 22092 ft | 279 kts | 266° |
| 2026-04-27 11:06 | 63.95173 | -20.53463 | 21699 ft | 277 kts | 266° |
| 2026-04-27 11:06 | 63.95287 | -20.57828 | 21308 ft | 276 kts | 266° |
| 2026-04-27 11:06 | 63.95398 | -20.62170 | 20913 ft | 275 kts | 266° |
| 2026-04-27 11:07 | 63.95508 | -20.66506 | 20530 ft | 274 kts | 266° |
| 2026-04-27 11:07 | 63.95619 | -20.70818 | 20146 ft | 273 kts | 266° |
| 2026-04-27 11:07 | 63.95726 | -20.75065 | 19770 ft | 272 kts | 266° |
| 2026-04-27 11:07 | 63.95832 | -20.79363 | 19400 ft | 272 kts | 266° |
| 2026-04-27 11:08 | 63.95936 | -20.83678 | 19001 ft | 274 kts | 265° |
| 2026-04-27 11:08 | 63.96035 | -20.88013 | 18609 ft | 274 kts | 265° |
| 2026-04-27 11:08 | 63.96134 | -20.92352 | 18237 ft | 274 kts | 265° |
| 2026-04-27 11:08 | 63.96235 | -20.96682 | 17814 ft | 274 kts | 265° |
| 2026-04-27 11:09 | 63.96334 | -21.01004 | 17436 ft | 272 kts | 265° |
| 2026-04-27 11:09 | 63.96432 | -21.05297 | 17054 ft | 272 kts | 265° |
| 2026-04-27 11:09 | 63.96530 | -21.09613 | 16678 ft | 273 kts | 265° |
| 2026-04-27 11:09 | 63.96628 | -21.13931 | 16297 ft | 273 kts | 266° |
| 2026-04-27 11:10 | 63.96726 | -21.18239 | 15924 ft | 272 kts | 266° |
| 2026-04-27 11:10 | 63.96821 | -21.22539 | 15562 ft | 272 kts | 265° |
| 2026-04-27 11:10 | 63.96913 | -21.26838 | 15197 ft | 272 kts | 265° |
| 2026-04-27 11:10 | 63.97003 | -21.31140 | 14830 ft | 272 kts | 265° |
| 2026-04-27 11:11 | 63.97090 | -21.35453 | 14463 ft | 273 kts | 265° |
| 2026-04-27 11:11 | 63.97177 | -21.39775 | 14095 ft | 274 kts | 265° |
| 2026-04-27 11:11 | 63.97266 | -21.44124 | 13717 ft | 275 kts | 266° |
| 2026-04-27 11:11 | 63.97616 | -21.48486 | 13272 ft | 286 kts | 281° |
| 2026-04-27 11:12 | 63.98409 | -21.52615 | 12889 ft | 289 kts | 286° |
| 2026-04-27 11:12 | 63.99254 | -21.56759 | 12482 ft | 288 kts | 286° |
| 2026-04-27 11:12 | 64.00095 | -21.60883 | 12088 ft | 286 kts | 286° |
| 2026-04-27 11:12 | 64.00933 | -21.65001 | 11690 ft | 286 kts | 286° |
| 2026-04-27 11:13 | 64.01768 | -21.69124 | 11283 ft | 286 kts | 285° |
| 2026-04-27 11:13 | 64.02602 | -21.73259 | 10844 ft | 287 kts | 285° |
| 2026-04-27 11:13 | 64.03430 | -21.77393 | 10405 ft | 286 kts | 285° |
| 2026-04-27 11:13 | 64.04256 | -21.81526 | 9992 ft | 286 kts | 285° |
| 2026-04-27 11:14 | 64.05081 | -21.85669 | 9704 ft | 284 kts | 285° |
| 2026-04-27 11:14 | 64.05888 | -21.89697 | 9478 ft | 276 kts | 285° |
| 2026-04-27 11:14 | 64.06682 | -21.93676 | 9157 ft | 275 kts | 285° |
| 2026-04-27 11:14 | 64.07471 | -21.97643 | 8929 ft | 275 kts | 285° |
| 2026-04-27 11:15 | 64.08259 | -22.01617 | 8686 ft | 274 kts | 284° |
| 2026-04-27 11:15 | 64.09039 | -22.05553 | 8073 ft | 271 kts | 285° |
| 2026-04-27 11:15 | 64.09811 | -22.09482 | 7320 ft | 271 kts | 285° |
| 2026-04-27 11:15 | 64.10582 | -22.13414 | 6622 ft | 270 kts | 285° |
| 2026-04-27 11:16 | 64.11338 | -22.17257 | 6073 ft | 264 kts | 286° |
| 2026-04-27 11:16 | 64.12080 | -22.21005 | 5650 ft | 252 kts | 286° |
| 2026-04-27 11:16 | 64.12794 | -22.24613 | 5279 ft | 249 kts | 286° |
| 2026-04-27 11:16 | 64.13506 | -22.28270 | 4907 ft | 253 kts | 287° |
| 2026-04-27 11:17 | 64.14223 | -22.31953 | 4581 ft | 250 kts | 287° |
| 2026-04-27 11:17 | 64.14927 | -22.35548 | 4337 ft | 243 kts | 288° |
| 2026-04-27 11:17 | 64.15604 | -22.39072 | 4205 ft | 241 kts | 283° |
| 2026-04-27 11:17 | 64.15918 | -22.42751 | 4071 ft | 231 kts | 263° |
| 2026-04-27 11:18 | 64.15722 | -22.46339 | 3725 ft | 226 kts | 246° |
| 2026-04-27 11:18 | 64.15179 | -22.49699 | 3264 ft | 227 kts | 243° |
| 2026-04-27 11:18 | 64.14631 | -22.53087 | 2910 ft | 226 kts | 243° |
| 2026-04-27 11:18 | 64.13986 | -22.56236 | 2747 ft | 211 kts | 229° |
| 2026-04-27 11:19 | 64.13039 | -22.58530 | 2608 ft | 190 kts | 211° |
| 2026-04-27 11:19 | 64.11934 | -22.59943 | 2388 ft | 178 kts | 196° |
| 2026-04-27 11:19 | 64.10747 | -22.60519 | 2106 ft | 171 kts | 181° |
| 2026-04-27 11:19 | 64.09575 | -22.60535 | 1856 ft | 166 kts | 179° |
| 2026-04-27 11:20 | 64.08426 | -22.60536 | 1589 ft | 162 kts | 179° |
| 2026-04-27 11:20 | 64.07356 | -22.60538 | 1525 ft | 144 kts | 179° |
| 2026-04-27 11:20 | 64.06398 | -22.60539 | 1548 ft | 134 kts | 178° |
| 2026-04-27 11:20 | 64.05472 | -22.60540 | 1428 ft | 132 kts | 178° |
| 2026-04-27 11:21 | 64.04564 | -22.60540 | 1277 ft | 130 kts | 178° |
| 2026-04-27 11:21 | 64.03666 | -22.60541 | 1114 ft | 128 kts | 178° |
| 2026-04-27 11:21 | 64.02775 | -22.60538 | 946 ft | 128 kts | 177° |
| 2026-04-27 11:21 | 64.01883 | -22.60532 | 764 ft | 128 kts | 177° |
| 2026-04-27 11:22 | 64.00989 | -22.60538 | 545 ft | 128 kts | 179° |
| 2026-04-27 11:22 | 64.00099 | -22.60540 | 400 ft | 127 kts | 178° |
| 2026-04-27 11:22 | 63.99215 | -22.60550 | 226 ft | 126 kts | 176° |
| 2026-04-27 11:22 | 63.98401 | -22.60536 | 174 ft | 102 kts | 179° |
| 2026-04-27 11:23 | 63.97871 | -22.60534 | 171 ft | 52 kts | 180° |
| 2026-04-27 11:23 | 63.97609 | -22.60543 | 174 ft | 33 kts | 180° |
| 2026-04-27 11:23 | 63.97439 | -22.60716 | 169 ft | 29 kts | 269° |
| 2026-04-27 11:23 | 63.97501 | -22.60938 | 166 ft | 15 kts | 354° |
| 2026-04-27 11:24 | 63.97590 | -22.60931 | 167 ft | 11 kts | 357° |
| 2026-04-27 11:24 | 63.97656 | -22.60938 | 168 ft | 12 kts | 358° |
| 2026-04-27 11:24 | 63.97818 | -22.60939 | 170 ft | 29 kts | 1° |
| 2026-04-27 11:24 | 63.98008 | -22.60940 | 169 ft | 25 kts | 359° |
| 2026-04-27 11:25 | 63.98187 | -22.60941 | 165 ft | 32 kts | 1° |
| 2026-04-27 11:25 | 63.98416 | -22.60942 | 166 ft | 32 kts | 360° |
| 2026-04-27 11:25 | 63.98639 | -22.60944 | 164 ft | 32 kts | 1° |
| 2026-04-27 11:25 | 63.98858 | -22.60939 | 165 ft | 30 kts | 360° |
| 2026-04-27 11:26 | 63.99052 | -22.60940 | 166 ft | 26 kts | 1° |
| 2026-04-27 11:26 | 63.99166 | -22.61033 | 160 ft | 16 kts | 287° |
| 2026-04-27 11:26 | 63.99183 | -22.61372 | 152 ft | 24 kts | 303° |
| 2026-04-27 11:26 | 63.99319 | -22.61427 | 145 ft | 19 kts | 358° |
| 2026-04-27 11:27 | 63.99456 | -22.61449 | 141 ft | 15 kts | 329° |
| 2026-04-27 11:27 | 63.99470 | -22.61593 | 141 ft | 15 kts | 270° |
| 2026-04-27 11:27 | 63.99452 | -22.61717 | 141 ft | 5 kts | 192° |
| 2026-04-27 11:27 | 63.99412 | -22.61717 | 141 ft | 2 kts | 181° |
| 2026-04-27 11:28 | 63.99403 | -22.61717 | 141 ft | 0 kts | 180° |